createdAt,value
2024-04-30T00:00:11.784Z,527.00
2024-04-30T00:01:11.016Z,526.00
2024-04-30T00:02:10.938Z,526.00
2024-04-30T00:03:10.990Z,529.00
2024-04-30T00:04:11.177Z,529.00
2024-04-30T00:05:11.044Z,527.00
2024-04-30T00:06:11.026Z,527.00
2024-04-30T00:07:11.073Z,526.00
2024-04-30T00:08:11.067Z,524.00
2024-04-30T00:09:11.100Z,523.00
2024-04-30T00:10:11.148Z,523.00
2024-04-30T00:11:11.218Z,520.00
2024-04-30T00:12:11.173Z,520.00
2024-04-30T00:13:11.178Z,519.00
2024-04-30T00:14:11.205Z,519.00
2024-04-30T00:15:11.950Z,521.00
2024-04-30T00:16:11.304Z,522.00
2024-04-30T00:17:11.282Z,523.00
2024-04-30T00:18:11.304Z,521.00
2024-04-30T00:19:11.363Z,523.00
2024-04-30T00:20:11.487Z,521.00
2024-04-30T00:21:11.359Z,521.00
2024-04-30T00:22:11.399Z,522.00
2024-04-30T00:23:11.375Z,523.00
2024-04-30T00:24:11.427Z,523.00
2024-04-30T00:25:11.488Z,520.00
2024-04-30T00:26:11.436Z,518.00
2024-04-30T00:27:11.467Z,518.00
2024-04-30T00:28:11.538Z,518.00
2024-04-30T00:29:11.522Z,515.00
2024-04-30T00:30:11.527Z,511.00
2024-04-30T00:31:11.587Z,510.00
2024-04-30T00:32:11.602Z,509.00
2024-04-30T00:33:11.740Z,507.00
2024-04-30T00:34:11.639Z,511.00
2024-04-30T00:35:11.654Z,514.00
2024-04-30T00:36:11.663Z,514.00
2024-04-30T00:37:11.696Z,513.00
2024-04-30T00:38:11.728Z,513.00
2024-04-30T00:39:11.728Z,513.00
2024-04-30T00:40:11.786Z,513.00
2024-04-30T00:41:11.800Z,513.00
2024-04-30T00:42:11.815Z,514.00
2024-04-30T00:43:11.900Z,515.00
2024-04-30T00:44:11.875Z,515.00
2024-04-30T00:45:11.907Z,516.00
2024-04-30T00:46:11.933Z,515.00
2024-04-30T00:47:11.952Z,515.00
2024-04-30T00:48:12.040Z,515.00
2024-04-30T00:49:12.014Z,518.00
2024-04-30T00:50:12.026Z,517.00
2024-04-30T00:51:12.092Z,516.00
2024-04-30T00:52:12.113Z,516.00
2024-04-30T00:53:12.132Z,516.00
2024-04-30T00:54:12.192Z,517.00
2024-04-30T00:55:12.177Z,520.00
2024-04-30T00:56:12.171Z,520.00
2024-04-30T00:57:12.235Z,519.00
2024-04-30T00:58:12.262Z,519.00
2024-04-30T00:59:12.234Z,519.00
2024-04-30T01:00:12.283Z,520.00
2024-04-30T01:01:12.357Z,518.00
2024-04-30T01:02:12.394Z,518.00
2024-04-30T01:03:12.399Z,516.00
2024-04-30T01:04:12.438Z,517.00
2024-04-30T01:05:12.427Z,518.00
2024-04-30T01:06:12.438Z,518.00
2024-04-30T01:07:12.513Z,517.00
2024-04-30T01:08:12.563Z,518.00
2024-04-30T01:09:12.502Z,518.00
2024-04-30T01:10:12.589Z,517.00
2024-04-30T01:11:12.574Z,517.00
2024-04-30T01:12:13.609Z,517.00
2024-04-30T01:13:12.650Z,518.00
2024-04-30T01:14:12.643Z,516.00
2024-04-30T01:15:12.668Z,513.00
2024-04-30T01:16:12.740Z,513.00
2024-04-30T01:17:12.748Z,512.00
2024-04-30T01:18:12.794Z,513.00
2024-04-30T01:19:12.807Z,512.00
2024-04-30T01:20:12.835Z,511.00
2024-04-30T01:21:12.853Z,510.00
2024-04-30T01:22:12.912Z,512.00
2024-04-30T01:23:12.923Z,512.00
2024-04-30T01:24:12.924Z,513.00
2024-04-30T01:25:13.052Z,513.00
2024-04-30T01:26:12.995Z,514.00
2024-04-30T01:27:12.998Z,515.00
2024-04-30T01:28:13.054Z,517.00
2024-04-30T01:29:13.035Z,516.00
2024-04-30T01:30:13.124Z,513.00
2024-04-30T01:31:13.143Z,515.00
2024-04-30T01:32:13.163Z,515.00
2024-04-30T01:33:13.180Z,515.00
2024-04-30T01:34:13.204Z,516.00
2024-04-30T01:35:13.231Z,513.00
2024-04-30T01:36:13.256Z,514.00
2024-04-30T01:37:13.311Z,515.00
2024-04-30T01:38:13.316Z,515.00
2024-04-30T01:39:13.327Z,515.00
2024-04-30T01:40:13.400Z,516.00
2024-04-30T01:41:13.383Z,517.00
2024-04-30T01:42:13.392Z,516.00
2024-04-30T01:43:13.421Z,518.00
2024-04-30T01:44:13.537Z,517.00
2024-04-30T01:45:13.483Z,517.00
2024-04-30T01:46:13.546Z,516.00
2024-04-30T01:47:13.548Z,515.00
2024-04-30T01:48:13.623Z,512.00
2024-04-30T01:49:13.611Z,513.00
2024-04-30T01:50:13.654Z,514.00
2024-04-30T01:51:13.670Z,517.00
2024-04-30T01:52:13.745Z,516.00
2024-04-30T01:53:13.738Z,515.00
2024-04-30T01:54:13.784Z,514.00
2024-04-30T01:55:13.813Z,514.00
2024-04-30T01:56:13.813Z,512.00
2024-04-30T01:57:13.851Z,509.00
2024-04-30T01:58:13.942Z,506.00
2024-04-30T01:59:13.935Z,505.00
2024-04-30T02:00:13.964Z,506.00
2024-04-30T02:01:14.079Z,504.00
2024-04-30T02:02:14.044Z,504.00
2024-04-30T02:03:14.087Z,503.00
2024-04-30T02:04:14.128Z,505.00
2024-04-30T02:05:20.931Z,506.00
2024-04-30T02:06:15.158Z,507.00
2024-04-30T02:07:14.170Z,510.00
2024-04-30T02:08:14.148Z,508.00
2024-04-30T02:09:14.139Z,509.00
2024-04-30T02:10:14.241Z,511.00
2024-04-30T02:11:14.168Z,512.00
2024-04-30T02:12:14.175Z,512.00
2024-04-30T02:13:14.141Z,512.00
2024-04-30T02:14:14.120Z,511.00
2024-04-30T02:15:14.130Z,510.00
2024-04-30T02:16:14.177Z,511.00
2024-04-30T02:17:14.164Z,512.00
2024-04-30T02:18:14.195Z,511.00
2024-04-30T02:19:14.198Z,510.00
2024-04-30T02:20:14.159Z,509.00
2024-04-30T02:21:14.143Z,507.00
2024-04-30T02:22:14.206Z,505.00
2024-04-30T02:23:14.244Z,507.00
2024-04-30T02:24:14.300Z,508.00
2024-04-30T02:25:14.370Z,507.00
2024-04-30T02:26:14.374Z,506.00
2024-04-30T02:27:14.380Z,508.00
2024-04-30T02:28:14.550Z,507.00
2024-04-30T02:29:14.489Z,508.00
2024-04-30T02:30:14.550Z,507.00
2024-04-30T02:31:14.557Z,506.00
2024-04-30T02:32:14.631Z,505.00
2024-04-30T02:33:14.632Z,505.00
2024-04-30T02:34:14.688Z,507.00
2024-04-30T02:35:14.749Z,507.00
2024-04-30T02:36:14.766Z,508.00
2024-04-30T02:37:14.841Z,507.00
2024-04-30T02:38:14.869Z,507.00
2024-04-30T02:39:14.878Z,507.00
2024-04-30T02:40:14.992Z,509.00
2024-04-30T02:41:14.964Z,508.00
2024-04-30T02:42:15.005Z,510.00
2024-04-30T02:43:15.073Z,510.00
2024-04-30T02:44:15.104Z,511.00
2024-04-30T02:45:15.125Z,510.00
2024-04-30T02:46:15.174Z,511.00
2024-04-30T02:47:15.248Z,512.00
2024-04-30T02:48:15.259Z,509.00
2024-04-30T02:49:15.322Z,506.00
2024-04-30T02:50:15.316Z,506.00
2024-04-30T02:51:15.358Z,509.00
2024-04-30T02:52:15.419Z,510.00
2024-04-30T02:53:15.485Z,509.00
2024-04-30T02:54:15.489Z,509.00
2024-04-30T02:55:15.578Z,507.00
2024-04-30T02:56:15.600Z,506.00
2024-04-30T02:57:15.603Z,507.00
2024-04-30T02:58:15.727Z,507.00
2024-04-30T02:59:15.717Z,507.00
2024-04-30T03:00:15.721Z,509.00
2024-04-30T03:01:15.847Z,510.00
2024-04-30T03:02:15.902Z,512.00
2024-04-30T03:03:15.844Z,512.00
2024-04-30T03:04:16.002Z,511.00
2024-04-30T03:05:15.982Z,510.00
2024-04-30T03:06:16.017Z,508.00
2024-04-30T03:07:16.115Z,508.00
2024-04-30T03:08:16.110Z,508.00
2024-04-30T03:09:16.142Z,507.00
2024-04-30T03:10:16.227Z,505.00
2024-04-30T03:11:16.330Z,504.00
2024-04-30T03:12:16.278Z,503.00
2024-04-30T03:13:16.367Z,504.00
2024-04-30T03:14:16.381Z,503.00
2024-04-30T03:15:17.983Z,502.00
2024-04-30T03:16:16.478Z,503.00
2024-04-30T03:17:16.561Z,503.00
2024-04-30T03:18:16.709Z,504.00
2024-04-30T03:19:16.645Z,504.00
2024-04-30T03:20:16.636Z,506.00
2024-04-30T03:21:16.659Z,508.00
2024-04-30T03:22:16.759Z,504.00
2024-04-30T03:23:16.762Z,504.00
2024-04-30T03:24:16.814Z,506.00
2024-04-30T03:25:16.924Z,507.00
2024-04-30T03:26:16.908Z,507.00
2024-04-30T03:27:16.981Z,508.00
2024-04-30T03:28:17.014Z,509.00
2024-04-30T03:29:17.063Z,510.00
2024-04-30T03:30:17.112Z,511.00
2024-04-30T03:31:17.192Z,511.00
2024-04-30T03:32:17.265Z,513.00
2024-04-30T03:33:17.371Z,513.00
2024-04-30T03:34:17.333Z,514.00
2024-04-30T03:35:17.349Z,513.00
2024-04-30T03:36:17.392Z,511.00
2024-04-30T03:37:17.536Z,514.00
2024-04-30T03:38:17.503Z,514.00
2024-04-30T03:39:17.568Z,515.00
2024-04-30T03:40:17.600Z,516.00
2024-04-30T03:41:17.702Z,516.00
2024-04-30T03:42:17.694Z,514.00
2024-04-30T03:43:17.835Z,512.00
2024-04-30T03:44:17.801Z,509.00
2024-04-30T03:45:18.029Z,509.00
2024-04-30T03:46:17.979Z,509.00
2024-04-30T03:47:17.963Z,510.00
2024-04-30T03:48:18.020Z,510.00
2024-04-30T03:49:18.035Z,510.00
2024-04-30T03:50:18.088Z,511.00
2024-04-30T03:51:18.137Z,511.00
2024-04-30T03:52:18.229Z,510.00
2024-04-30T03:53:18.209Z,508.00
2024-04-30T03:54:18.301Z,508.00
2024-04-30T03:55:18.395Z,507.00
2024-04-30T03:56:18.362Z,507.00
2024-04-30T03:57:18.423Z,504.00
2024-04-30T03:58:21.096Z,504.00
2024-04-30T03:59:18.454Z,501.00
2024-04-30T04:00:18.478Z,505.00
2024-04-30T04:01:18.474Z,508.00
2024-04-30T04:02:18.468Z,507.00
2024-04-30T04:03:18.459Z,506.00
2024-04-30T04:04:18.587Z,504.00
2024-04-30T04:05:18.485Z,502.00
2024-04-30T04:06:18.475Z,505.00
2024-04-30T04:07:18.498Z,505.00
2024-04-30T04:08:18.497Z,507.00
2024-04-30T04:09:18.457Z,509.00
2024-04-30T04:10:18.524Z,509.00
2024-04-30T04:11:18.515Z,510.00
2024-04-30T04:12:18.547Z,512.00
2024-04-30T04:13:18.516Z,514.00
2024-04-30T04:14:18.473Z,517.00
2024-04-30T04:15:18.486Z,516.00
2024-04-30T04:16:18.512Z,520.00
2024-04-30T04:17:18.606Z,518.00
2024-04-30T04:18:18.599Z,517.00
2024-04-30T04:19:18.523Z,516.00
2024-04-30T04:20:18.490Z,518.00
2024-04-30T04:21:20.570Z,519.00
2024-04-30T04:22:18.530Z,519.00
2024-04-30T04:23:26.373Z,543.00
2024-04-30T04:24:26.522Z,539.00
2024-04-30T04:25:26.749Z,540.00
2024-04-30T04:26:26.899Z,539.00
2024-04-30T04:27:27.021Z,538.00
2024-04-30T04:28:27.076Z,538.00
2024-04-30T04:29:27.301Z,540.00
2024-04-30T04:30:27.795Z,537.00
2024-04-30T04:31:27.627Z,536.00
2024-04-30T04:32:27.784Z,535.00
2024-04-30T04:33:27.942Z,536.00
2024-04-30T04:34:28.093Z,534.00
2024-04-30T04:35:28.119Z,534.00
2024-04-30T04:36:28.102Z,531.00
2024-04-30T04:37:28.157Z,532.00
2024-04-30T04:38:28.108Z,532.00
2024-04-30T04:39:28.120Z,531.00
2024-04-30T04:40:28.167Z,531.00
2024-04-30T04:41:28.105Z,530.00
2024-04-30T04:42:28.128Z,528.00
2024-04-30T04:43:28.183Z,529.00
2024-04-30T04:44:28.155Z,528.00
2024-04-30T04:45:28.127Z,528.00
2024-04-30T04:46:28.142Z,527.00
2024-04-30T04:47:28.311Z,531.00
2024-04-30T04:48:28.324Z,531.00
2024-04-30T04:49:28.365Z,532.00
2024-04-30T04:50:28.360Z,532.00
2024-04-30T04:51:28.372Z,534.00
2024-04-30T04:52:28.408Z,532.00
2024-04-30T04:53:28.393Z,531.00
2024-04-30T04:54:28.397Z,528.00
2024-04-30T04:55:28.439Z,528.00
2024-04-30T04:56:28.430Z,529.00
2024-04-30T04:57:28.440Z,531.00
2024-04-30T04:58:28.556Z,531.00
2024-04-30T04:59:28.875Z,529.00
2024-04-30T05:00:28.553Z,527.00
2024-04-30T05:01:28.581Z,526.00
2024-04-30T05:02:28.607Z,525.00
2024-04-30T05:03:28.687Z,526.00
2024-04-30T05:04:28.789Z,525.00
2024-04-30T05:05:28.808Z,528.00
2024-04-30T05:06:28.764Z,529.00
2024-04-30T05:07:28.857Z,529.00
2024-04-30T05:08:28.957Z,529.00
2024-04-30T05:09:29.029Z,529.00
2024-04-30T05:10:29.059Z,525.00
2024-04-30T05:11:29.064Z,525.00
2024-04-30T05:12:29.093Z,525.00
2024-04-30T05:13:29.170Z,525.00
2024-04-30T05:14:29.178Z,522.00
2024-04-30T05:15:29.970Z,519.00
2024-04-30T05:16:29.367Z,523.00
2024-04-30T05:17:29.462Z,525.00
2024-04-30T05:18:29.404Z,525.00
2024-04-30T05:19:29.445Z,527.00
2024-04-30T05:20:29.420Z,527.00
2024-04-30T05:21:29.399Z,528.00
2024-04-30T05:22:29.438Z,530.00
2024-04-30T05:23:29.448Z,529.00
2024-04-30T05:24:29.484Z,528.00
2024-04-30T05:25:29.506Z,526.00
2024-04-30T05:26:29.508Z,527.00
2024-04-30T05:27:29.575Z,530.00
2024-04-30T05:28:29.653Z,532.00
2024-04-30T05:29:29.591Z,535.00
2024-04-30T05:30:29.623Z,539.00
2024-04-30T05:31:29.740Z,547.00
2024-04-30T05:32:29.986Z,552.00
2024-04-30T05:33:29.798Z,557.00
2024-04-30T05:34:29.897Z,561.00
2024-04-30T05:35:29.868Z,566.00
2024-04-30T05:36:29.952Z,568.00
2024-04-30T05:37:30.066Z,568.00
2024-04-30T05:38:30.063Z,573.00
2024-04-30T05:39:30.214Z,577.00
2024-04-30T05:40:30.252Z,592.00
2024-04-30T05:41:30.291Z,638.00
2024-04-30T05:42:30.330Z,647.00
2024-04-30T05:43:30.455Z,653.00
2024-04-30T05:44:30.518Z,707.00
2024-04-30T05:45:30.508Z,710.00
2024-04-30T05:46:30.654Z,710.00
2024-04-30T05:47:30.712Z,762.00
2024-04-30T05:48:30.730Z,783.00
2024-04-30T05:49:30.986Z,795.00
2024-04-30T05:50:31.062Z,804.00
2024-04-30T05:51:31.372Z,812.00
2024-04-30T05:52:31.447Z,854.00
2024-04-30T05:53:31.084Z,881.00
2024-04-30T05:54:31.127Z,915.00
2024-04-30T05:55:31.233Z,936.00
2024-04-30T05:56:31.238Z,938.00
2024-04-30T05:57:31.330Z,950.00
2024-04-30T05:58:31.342Z,961.00
2024-04-30T05:59:31.325Z,969.00
2024-04-30T06:00:31.410Z,975.00
2024-04-30T06:01:31.939Z,984.00
2024-04-30T06:02:33.392Z,992.00
2024-04-30T06:03:31.827Z,1002.00
2024-04-30T06:04:31.504Z,1011.00
2024-04-30T06:05:31.554Z,1016.00
2024-04-30T06:06:31.511Z,1022.00
2024-04-30T06:07:31.624Z,1032.00
2024-04-30T06:08:31.542Z,1036.00
2024-04-30T06:09:31.598Z,1042.00
2024-04-30T06:10:31.624Z,1052.00
2024-04-30T06:11:31.617Z,1065.00
2024-04-30T06:12:31.622Z,1080.00
2024-04-30T06:13:32.025Z,1090.00
2024-04-30T06:14:31.630Z,1105.00
2024-04-30T06:15:31.639Z,1132.00
2024-04-30T06:16:31.690Z,1143.00
2024-04-30T06:17:31.687Z,1142.00
2024-04-30T06:18:31.707Z,1136.00
2024-04-30T06:19:31.697Z,1139.00
2024-04-30T06:20:31.791Z,1139.00
2024-04-30T06:21:37.675Z,1139.00
2024-04-30T06:22:32.755Z,1144.00
2024-04-30T06:23:31.743Z,1155.00
2024-04-30T06:24:31.927Z,1155.00
2024-04-30T06:25:31.852Z,1159.00
2024-04-30T06:26:31.919Z,1163.00
2024-04-30T06:27:31.820Z,1169.00
2024-04-30T06:28:34.042Z,1172.00
2024-04-30T06:29:31.728Z,1173.00
2024-04-30T06:30:31.745Z,1180.00
2024-04-30T06:31:31.842Z,1186.00
2024-04-30T06:32:31.872Z,1188.00
2024-04-30T06:33:31.806Z,1197.00
2024-04-30T06:34:31.781Z,1197.00
2024-04-30T06:35:31.775Z,1196.00
2024-04-30T06:36:31.780Z,1197.00
2024-04-30T06:37:31.833Z,1200.00
2024-04-30T06:38:31.810Z,1204.00
2024-04-30T06:39:31.744Z,1199.00
2024-04-30T06:40:31.798Z,1199.00
2024-04-30T06:41:31.873Z,1202.00
2024-04-30T06:42:31.774Z,1214.00
2024-04-30T06:43:31.771Z,1223.00
2024-04-30T06:44:31.777Z,1229.00
2024-04-30T06:45:31.781Z,1233.00
2024-04-30T06:46:31.815Z,1236.00
2024-04-30T06:47:31.918Z,1238.00
2024-04-30T06:48:31.923Z,1235.00
2024-04-30T06:49:32.549Z,1219.00
2024-04-30T06:50:31.830Z,1222.00
2024-04-30T06:51:31.796Z,1225.00
2024-04-30T06:52:32.097Z,1234.00
2024-04-30T06:53:31.797Z,1237.00
2024-04-30T06:54:31.820Z,1245.00
2024-04-30T06:55:31.830Z,1246.00
2024-04-30T06:56:31.830Z,1246.00
2024-04-30T06:57:31.939Z,1242.00
2024-04-30T06:58:31.816Z,1246.00
2024-04-30T06:59:31.897Z,1242.00
2024-04-30T07:00:31.795Z,1237.00
2024-04-30T07:01:31.802Z,1236.00
2024-04-30T07:02:32.020Z,1241.00
2024-04-30T07:03:31.811Z,1245.00
2024-04-30T07:04:31.838Z,1247.00
2024-04-30T07:05:31.894Z,1242.00
2024-04-30T07:06:31.924Z,1236.00
2024-04-30T07:07:32.109Z,1233.00
2024-04-30T07:08:32.049Z,1235.00
2024-04-30T07:09:32.140Z,1236.00
2024-04-30T07:10:32.199Z,1233.00
2024-04-30T07:11:32.503Z,1236.00
2024-04-30T07:12:32.456Z,1234.00
2024-04-30T07:13:32.467Z,1234.00
2024-04-30T07:14:32.388Z,1233.00
2024-04-30T07:15:32.476Z,1228.00
2024-04-30T07:16:32.515Z,1220.00
2024-04-30T07:17:33.975Z,1218.00
2024-04-30T07:18:33.077Z,1203.00
2024-04-30T07:19:33.095Z,1199.00
2024-04-30T07:20:32.753Z,1214.00
2024-04-30T07:21:32.748Z,1221.00
2024-04-30T07:22:32.817Z,1228.00
2024-04-30T07:23:32.822Z,1234.00
2024-04-30T07:24:32.942Z,1243.00
2024-04-30T07:25:33.978Z,1248.00
2024-04-30T07:26:33.046Z,1265.00
2024-04-30T07:27:32.995Z,1329.00
2024-04-30T07:28:33.081Z,1216.00
2024-04-30T07:29:33.411Z,1242.00
2024-04-30T07:30:33.185Z,1222.00
2024-04-30T07:31:33.404Z,1202.00
2024-04-30T07:32:33.420Z,1192.00
2024-04-30T07:33:34.071Z,1100.00
2024-04-30T07:34:33.711Z,1013.00
2024-04-30T07:35:33.456Z,922.00
2024-04-30T07:36:33.481Z,810.00
2024-04-30T07:37:33.627Z,755.00
2024-04-30T07:38:33.786Z,764.00
2024-04-30T07:39:33.898Z,779.00
2024-04-30T07:40:34.642Z,786.00
2024-04-30T07:41:34.004Z,793.00
2024-04-30T07:42:34.033Z,804.00
2024-04-30T07:43:34.117Z,814.00
2024-04-30T07:44:36.892Z,823.00
2024-04-30T07:45:34.418Z,833.00
2024-04-30T07:46:34.298Z,840.00
2024-04-30T07:47:34.204Z,847.00
2024-04-30T07:48:34.143Z,851.00
2024-04-30T07:49:34.320Z,858.00
2024-04-30T07:50:34.128Z,859.00
2024-04-30T07:51:34.147Z,863.00
2024-04-30T07:52:34.456Z,866.00
2024-04-30T07:53:34.087Z,868.00
2024-04-30T07:54:34.110Z,872.00
2024-04-30T07:55:34.182Z,875.00
2024-04-30T07:56:34.120Z,879.00
2024-04-30T07:57:34.203Z,885.00
2024-04-30T07:58:34.492Z,897.00
2024-04-30T07:59:34.232Z,990.00
2024-04-30T08:00:34.217Z,1000.00
2024-04-30T08:01:34.275Z,991.00
2024-04-30T08:02:34.162Z,969.00
2024-04-30T08:03:34.449Z,976.00
2024-04-30T08:04:34.192Z,977.00
2024-04-30T08:05:42.685Z,975.00
2024-04-30T08:06:35.213Z,970.00
2024-04-30T08:07:34.244Z,974.00
2024-04-30T08:08:34.411Z,1053.00
2024-04-30T08:09:34.202Z,991.00
2024-04-30T08:10:34.423Z,995.00
2024-04-30T08:11:34.295Z,997.00
2024-04-30T08:12:34.221Z,1037.00
2024-04-30T08:13:34.333Z,1035.00
2024-04-30T08:14:36.367Z,1132.00
2024-04-30T08:15:34.442Z,1033.00
2024-04-30T08:16:34.513Z,1011.00
2024-04-30T08:17:34.676Z,1018.00
2024-04-30T08:18:34.626Z,1056.00
2024-04-30T08:19:39.626Z,992.00
2024-04-30T08:20:35.936Z,1001.00
2024-04-30T08:21:34.624Z,1136.00
2024-04-30T08:22:34.553Z,1025.00
2024-04-30T08:23:34.576Z,1010.00
2024-04-30T08:24:34.604Z,1000.00
2024-04-30T08:25:34.985Z,1005.00
2024-04-30T08:26:34.601Z,1005.00
2024-04-30T08:27:34.627Z,998.00
2024-04-30T08:28:34.776Z,961.00
2024-04-30T08:29:34.626Z,954.00
2024-04-30T08:30:34.977Z,898.00
2024-04-30T08:31:34.662Z,880.00
2024-04-30T08:32:34.708Z,859.00
2024-04-30T08:33:34.946Z,843.00
2024-04-30T08:34:35.045Z,818.00
2024-04-30T08:35:34.879Z,816.00
2024-04-30T08:36:34.861Z,813.00
2024-04-30T08:37:40.111Z,804.00
2024-04-30T08:38:35.944Z,800.00
2024-04-30T08:39:35.439Z,794.00
2024-04-30T08:40:34.985Z,786.00
2024-04-30T08:41:34.938Z,775.00
2024-04-30T08:42:34.958Z,745.00
2024-04-30T08:43:35.185Z,713.00
2024-04-30T08:44:35.454Z,705.00
2024-04-30T08:45:35.450Z,739.00
2024-04-30T08:46:35.072Z,765.00
2024-04-30T08:47:36.175Z,782.00
2024-04-30T08:48:35.098Z,824.00
2024-04-30T08:49:46.135Z,832.00
2024-04-30T09:00:02.510Z,930.00
2024-04-30T09:01:02.570Z,917.00
2024-04-30T09:02:02.621Z,921.00
2024-04-30T09:03:03.738Z,938.00
2024-04-30T09:04:03.178Z,936.00
2024-04-30T09:05:02.652Z,939.00
2024-04-30T09:06:02.602Z,945.00
2024-04-30T09:07:02.716Z,940.00
2024-04-30T09:08:02.632Z,914.00
2024-04-30T09:09:02.637Z,918.00
2024-04-30T09:10:03.604Z,932.00
2024-04-30T09:11:03.749Z,943.00
2024-04-30T09:12:03.189Z,945.00
2024-04-30T09:13:02.640Z,940.00
2024-04-30T09:14:02.688Z,945.00
2024-04-30T09:15:02.718Z,950.00
2024-04-30T09:16:03.916Z,944.00
2024-04-30T09:17:03.489Z,942.00
2024-04-30T09:18:02.815Z,937.00
2024-04-30T09:19:02.720Z,937.00
2024-04-30T09:20:02.721Z,926.00
2024-04-30T09:22:02.772Z,922.00
2024-04-30T09:23:03.134Z,918.00
2024-04-30T09:24:02.746Z,913.00
2024-04-30T09:25:02.755Z,913.00
2024-04-30T09:26:02.731Z,911.00
2024-04-30T09:27:02.737Z,787.00
2024-04-30T09:28:02.764Z,788.00
2024-04-30T09:29:02.766Z,788.00
2024-04-30T09:30:02.789Z,805.00
2024-04-30T09:31:02.784Z,813.00
2024-04-30T09:32:02.786Z,840.00
2024-04-30T09:33:02.819Z,777.00
2024-04-30T09:34:02.809Z,742.00
2024-04-30T09:35:02.815Z,729.00
2024-04-30T09:36:06.248Z,687.00
2024-04-30T09:37:03.832Z,687.00
2024-04-30T09:38:02.869Z,683.00
2024-04-30T09:39:02.764Z,679.00
2024-04-30T09:40:02.930Z,678.00
2024-04-30T09:41:02.789Z,677.00
2024-04-30T09:42:02.780Z,670.00
2024-04-30T09:43:02.814Z,664.00
2024-04-30T09:44:02.801Z,655.00
2024-04-30T09:45:02.782Z,646.00
2024-04-30T09:46:02.854Z,637.00
2024-04-30T09:47:02.953Z,630.00
2024-04-30T09:48:03.158Z,623.00
2024-04-30T09:49:04.367Z,621.00
2024-04-30T09:50:02.997Z,620.00
2024-04-30T09:51:02.854Z,616.00
2024-04-30T09:52:02.779Z,609.00
2024-04-30T09:53:02.821Z,604.00
2024-04-30T09:54:02.824Z,601.00
2024-04-30T09:55:02.763Z,595.00
2024-04-30T09:56:05.543Z,595.00
2024-04-30T09:57:03.119Z,592.00
2024-04-30T09:58:02.814Z,588.00
2024-04-30T09:59:02.893Z,586.00
2024-04-30T10:00:02.925Z,582.00
2024-04-30T10:01:02.838Z,577.00
2024-04-30T10:02:03.578Z,574.00
2024-04-30T10:03:02.870Z,574.00
2024-04-30T10:04:02.865Z,569.00
2024-04-30T10:05:03.122Z,567.00
2024-04-30T10:06:02.839Z,564.00
2024-04-30T10:07:02.778Z,561.00
2024-04-30T10:08:02.796Z,560.00
2024-04-30T10:09:03.082Z,560.00
2024-04-30T10:10:02.926Z,558.00
2024-04-30T10:11:02.921Z,559.00
2024-04-30T10:12:02.854Z,556.00
2024-04-30T10:13:02.856Z,552.00
2024-04-30T10:14:02.860Z,555.00
2024-04-30T10:15:02.813Z,557.00
2024-04-30T10:16:02.836Z,556.00
2024-04-30T10:17:03.245Z,554.00
2024-04-30T10:18:02.946Z,554.00
2024-04-30T10:19:02.824Z,550.00
2024-04-30T10:20:02.853Z,549.00
2024-04-30T10:21:02.807Z,549.00
2024-04-30T10:22:02.838Z,549.00
2024-04-30T10:23:03.039Z,549.00
2024-04-30T10:24:02.848Z,547.00
2024-04-30T10:25:02.865Z,550.00
2024-04-30T10:26:02.875Z,549.00
2024-04-30T10:27:02.847Z,546.00
2024-04-30T10:28:02.855Z,546.00
2024-04-30T10:29:02.812Z,545.00
2024-04-30T10:30:02.833Z,544.00
2024-04-30T10:31:02.849Z,544.00
2024-04-30T10:32:02.854Z,544.00
2024-04-30T10:33:03.086Z,545.00
2024-04-30T10:34:02.882Z,544.00
2024-04-30T10:35:02.807Z,543.00
2024-04-30T10:36:02.816Z,544.00
2024-04-30T10:37:02.865Z,541.00
2024-04-30T10:38:03.085Z,539.00
2024-04-30T10:39:02.832Z,537.00
2024-04-30T10:40:02.835Z,538.00
2024-04-30T10:41:02.847Z,536.00
2024-04-30T10:42:03.069Z,533.00
2024-04-30T10:43:02.865Z,534.00
2024-04-30T10:44:02.866Z,535.00
2024-04-30T10:45:02.836Z,536.00
2024-04-30T10:46:02.881Z,537.00
2024-04-30T10:47:02.838Z,537.00
2024-04-30T10:48:03.223Z,538.00
2024-04-30T10:49:02.898Z,539.00
2024-04-30T10:51:02.836Z,541.00
2024-04-30T10:52:02.875Z,542.00
2024-04-30T10:53:03.544Z,540.00
2024-04-30T10:54:03.097Z,538.00
2024-04-30T10:55:02.844Z,538.00
2024-04-30T10:56:03.074Z,537.00
2024-04-30T10:57:02.847Z,536.00
2024-04-30T10:58:02.858Z,534.00
2024-04-30T10:59:03.072Z,533.00
2024-04-30T11:00:02.862Z,533.00
2024-04-30T11:01:02.928Z,534.00
2024-04-30T11:02:02.939Z,534.00
2024-04-30T11:03:02.918Z,531.00
2024-04-30T11:04:02.859Z,530.00
2024-04-30T11:05:02.992Z,530.00
2024-04-30T11:06:02.859Z,529.00
2024-04-30T11:07:02.854Z,530.00
2024-04-30T11:08:03.060Z,528.00
2024-04-30T11:09:02.866Z,530.00
2024-04-30T11:10:02.870Z,532.00
2024-04-30T11:11:02.903Z,531.00
2024-04-30T11:12:02.905Z,529.00
2024-04-30T11:13:03.570Z,527.00
2024-04-30T11:14:02.882Z,530.00
2024-04-30T11:15:02.864Z,530.00
2024-04-30T11:16:10.353Z,531.00
2024-04-30T11:17:04.014Z,527.00
2024-04-30T11:18:03.265Z,526.00
2024-04-30T11:19:02.909Z,527.00
2024-04-30T11:20:02.947Z,529.00
2024-04-30T11:21:02.853Z,528.00
2024-04-30T11:22:02.870Z,528.00
2024-04-30T11:23:02.868Z,527.00
2024-04-30T11:24:02.884Z,528.00
2024-04-30T11:25:02.908Z,529.00
2024-04-30T11:26:02.879Z,528.00
2024-04-30T11:27:02.854Z,530.00
2024-04-30T11:28:02.867Z,531.00
2024-04-30T11:29:15.696Z,532.00
2024-04-30T11:30:03.952Z,532.00
2024-04-30T11:31:02.867Z,531.00
2024-04-30T11:32:02.906Z,530.00
2024-04-30T11:33:03.046Z,530.00
2024-04-30T11:34:02.906Z,529.00
2024-04-30T11:35:02.915Z,530.00
2024-04-30T11:36:02.908Z,531.00
2024-04-30T11:37:02.928Z,531.00
2024-04-30T11:38:02.992Z,533.00
2024-04-30T11:39:02.958Z,532.00
2024-04-30T11:40:02.925Z,531.00
2024-04-30T11:41:02.884Z,533.00
2024-04-30T11:42:13.551Z,534.00
2024-04-30T11:43:03.938Z,533.00
2024-04-30T11:44:03.008Z,531.00
2024-04-30T11:45:02.986Z,528.00
2024-04-30T11:46:02.945Z,525.00
2024-04-30T11:47:02.955Z,523.00
2024-04-30T11:48:03.108Z,522.00
2024-04-30T11:49:02.983Z,523.00
2024-04-30T11:50:02.945Z,524.00
2024-04-30T11:51:02.935Z,526.00
2024-04-30T11:52:02.954Z,525.00
2024-04-30T11:53:03.113Z,523.00
2024-04-30T11:54:02.988Z,523.00
2024-04-30T11:55:02.942Z,524.00
2024-04-30T11:56:02.982Z,522.00
2024-04-30T11:57:03.037Z,522.00
2024-04-30T11:58:03.004Z,521.00
2024-04-30T11:59:02.998Z,521.00
2024-04-30T12:00:03.015Z,522.00
2024-04-30T12:01:03.126Z,521.00
2024-04-30T12:02:03.189Z,522.00
2024-04-30T12:03:03.137Z,586.00
2024-04-30T12:04:03.237Z,595.00
2024-04-30T12:05:03.342Z,588.00
2024-04-30T12:06:03.240Z,595.00
2024-04-30T12:07:03.266Z,649.00
2024-04-30T12:08:03.407Z,644.00
2024-04-30T12:09:03.422Z,655.00
2024-04-30T12:10:03.507Z,663.00
2024-04-30T12:11:03.778Z,683.00
2024-04-30T12:12:03.610Z,695.00
2024-04-30T12:13:03.681Z,699.00
2024-04-30T12:14:03.792Z,704.00
2024-04-30T12:15:03.825Z,707.00
2024-04-30T12:16:03.969Z,727.00
2024-04-30T12:17:04.014Z,715.00
2024-04-30T12:18:04.085Z,711.00
2024-04-30T12:19:04.086Z,720.00
2024-04-30T12:20:04.142Z,728.00
2024-04-30T12:21:04.222Z,763.00
2024-04-30T12:22:04.296Z,771.00
2024-04-30T12:23:04.365Z,801.00
2024-04-30T12:24:04.417Z,789.00
2024-04-30T12:25:04.538Z,791.00
2024-04-30T12:26:04.534Z,799.00
2024-04-30T12:27:04.607Z,796.00
2024-04-30T12:28:04.717Z,793.00
2024-04-30T12:29:04.816Z,791.00
2024-04-30T12:30:04.838Z,791.00
2024-04-30T12:31:04.871Z,791.00
2024-04-30T12:32:07.683Z,789.00
2024-04-30T12:33:05.115Z,788.00
2024-04-30T12:34:05.066Z,790.00
2024-04-30T12:35:05.051Z,790.00
2024-04-30T12:36:05.079Z,789.00
2024-04-30T12:37:05.000Z,794.00